Time;durP1;ratioP1;P1;durP2;ratioP2;P2;SDS_P1;SDS_P2;PMS_P1;PMS_P2;Temp;Humidity;BMP_temperature;BMP_pressure;BME280_temperature;BME280_humidity;BME280_pressure;Samples;Min_cycle;Max_cycle;Signal;HPM_P1;HPM_P2
2022/01/14 00:01:15;;;;;;;3.07;2.73;;;8.10;99.90;;;;;;4963387;28;20213;-88
2022/01/14 00:03:42;;;;;;;3.60;1.67;;;8.20;99.90;;;;;;4964254;28;20215;-88
2022/01/14 00:06:08;;;;;;;5.37;2.90;;;8.10;99.90;;;;;;4964066;28;20188;-88
2022/01/14 00:08:34;;;;;;;1.13;1.03;;;8.10;99.90;;;;;;4979944;28;20231;-88
2022/01/14 00:11:02;;;;;;;1.47;1.40;;;8.10;99.90;;;;;;4949467;28;20709;-88
2022/01/14 00:16:04;;;;;;;3.07;2.47;;;8.00;99.90;;;;;;4964103;28;20220;-88
2022/01/14 00:18:32;;;;;;;2.63;2.43;;;8.00;99.90;;;;;;4948250;28;20200;-88
2022/01/14 00:20:59;;;;;;;6.20;3.77;;;8.00;99.90;;;;;;4979889;28;20199;-88
2022/01/14 00:23:30;;;;;;;1.27;1.03;;;7.90;99.90;;;;;;4948544;28;20298;-88
2022/01/14 00:34:06;;;;;;;9.03;4.77;;;8.00;99.90;;;;;;4980064;28;20224;-88
2022/01/14 00:36:32;;;;;;;3.77;2.97;;;8.00;99.90;;;;;;4963081;28;20195;-88
2022/01/14 00:38:58;;;;;;;7.07;1.93;;;8.00;99.90;;;;;;4964128;28;20195;-88
2022/01/14 00:41:24;;;;;;;3.53;2.83;;;8.10;99.90;;;;;;4963028;28;20298;-88
2022/01/14 00:43:55;;;;;;;3.83;2.07;;;8.10;99.90;;;;;;4970698;28;20219;-88
2022/01/14 00:46:21;;;;;;;3.70;2.90;;;8.10;99.90;;;;;;4949461;28;20219;-88
2022/01/14 00:48:46;;;;;;;3.40;3.10;;;8.20;99.90;;;;;;4963061;28;20232;-88
2022/01/14 00:51:13;;;;;;;2.43;2.23;;;8.20;99.90;;;;;;4962813;28;20204;-88
2022/01/14 00:53:39;;;;;;;3.37;2.30;;;8.20;99.90;;;;;;4980115;28;20239;-88
2022/01/14 00:56:21;;;;;;;3.53;2.17;;;8.30;99.90;;;;;;4962811;28;20235;-89
2022/01/14 01:01:31;;;;;;;3.60;3.10;;;8.30;99.90;;;;;;4966252;28;20558;-88
2022/01/14 01:03:57;;;;;;;2.73;2.40;;;8.30;99.90;;;;;;4978097;28;21044;-88
2022/01/14 01:06:23;;;;;;;22.97;4.03;;;8.30;99.90;;;;;;4963970;28;20188;-88
2022/01/14 01:08:51;;;;;;;1.63;1.50;;;8.30;99.90;;;;;;4953204;28;20348;-88
2022/01/14 01:11:24;;;;;;;7.23;5.50;;;8.40;99.90;;;;;;4984716;28;20216;-88
2022/01/14 01:14:00;;;;;;;3.17;2.70;;;8.40;99.90;;;;;;4973184;28;20212;-89
2022/01/14 01:16:26;;;;;;;5.33;2.87;;;8.40;99.90;;;;;;4973225;28;20215;-88
2022/01/14 01:18:52;;;;;;;3.90;3.07;;;8.40;99.90;;;;;;4972550;28;20215;-88
2022/01/14 01:21:18;;;;;;;5.90;3.47;;;8.40;99.90;;;;;;4956292;28;20192;-88
2022/01/14 01:23:43;;;;;;;3.93;3.43;;;8.40;99.90;;;;;;4972089;28;20303;-88
2022/01/14 01:26:15;;;;;;;19.43;3.53;;;8.40;99.90;;;;;;4972168;28;20204;-89
2022/01/14 01:31:41;;;;;;;2.97;2.60;;;8.40;99.90;;;;;;4944767;28;20246;-88
2022/01/14 01:34:11;;;;;;;4.00;3.03;;;8.50;99.90;;;;;;4988308;28;20207;-88
2022/01/14 01:36:38;;;;;;;4.20;3.47;;;8.50;99.90;;;;;;5005148;28;20675;-88
2022/01/14 01:39:06;;;;;;;5.43;3.33;;;8.50;99.90;;;;;;4988698;28;20168;-88
2022/01/14 01:41:35;;;;;;;7.47;4.20;;;8.50;99.90;;;;;;4988452;28;20688;-88
2022/01/14 01:44:05;;;;;;;5.40;3.67;;;8.50;99.90;;;;;;4988096;28;20207;-88
2022/01/14 01:46:31;;;;;;;5.40;3.30;;;8.50;99.90;;;;;;4988810;28;20208;-88
2022/01/14 01:48:57;;;;;;;3.67;3.37;;;8.60;99.90;;;;;;4956157;28;20223;-88
2022/01/14 01:51:22;;;;;;;10.87;4.70;;;8.50;99.90;;;;;;4972248;28;20574;-88
2022/01/14 01:53:49;;;;;;;3.37;2.07;;;8.60;99.90;;;;;;4954958;28;20224;-88
2022/01/14 01:56:16;;;;;;;25.67;4.60;;;8.50;99.90;;;;;;4971065;28;20242;-89
2022/01/14 01:58:41;;;;;;;3.97;2.70;;;8.60;99.90;;;;;;4971507;28;20230;-89
2022/01/14 02:01:08;;;;;;;6.57;3.47;;;8.60;99.90;;;;;;4971335;28;20224;-88
2022/01/14 02:03:35;;;;;;;3.27;2.70;;;8.60;99.90;;;;;;4987658;28;20242;-88
2022/01/14 02:06:02;;;;;;;8.77;2.53;;;8.60;99.90;;;;;;4970994;28;20192;-88
2022/01/14 02:08:28;;;;;;;12.03;4.40;;;8.60;99.90;;;;;;4955623;28;20916;-88
2022/01/14 02:10:54;;;;;;;2.73;2.53;;;8.60;99.90;;;;;;4971358;28;20212;-88
2022/01/14 02:13:20;;;;;;;9.60;4.33;;;8.60;99.90;;;;;;4962774;28;20220;-89
2022/01/14 02:15:50;;;;;;;6.07;3.27;;;8.60;99.90;;;;;;4955247;28;20439;-88
2022/01/14 02:18:40;;;;;;;4.40;3.77;;;8.60;99.90;;;;;;4973318;28;20196;-89
2022/01/14 02:24:06;;;;;;;4.10;3.13;;;8.60;99.90;;;;;;4988970;28;20220;-88
2022/01/14 02:26:33;;;;;;;7.03;4.00;;;8.60;99.90;;;;;;4987566;28;20707;-88
2022/01/14 02:28:59;;;;;;;3.47;2.80;;;8.60;99.90;;;;;;4971201;28;20228;-89
2022/01/14 02:31:25;;;;;;;6.20;3.43;;;8.60;99.90;;;;;;4971121;28;20358;-88
2022/01/14 02:33:51;;;;;;;4.33;2.90;;;8.60;99.90;;;;;;4970115;28;20707;-88
2022/01/14 02:36:17;;;;;;;4.87;4.47;;;8.60;99.90;;;;;;4971731;28;20197;-88
2022/01/14 02:38:44;;;;;;;4.27;2.73;;;8.60;99.90;;;;;;4987560;28;20573;-88
2022/01/14 02:41:10;;;;;;;3.07;2.83;;;8.60;99.90;;;;;;4987073;28;20439;-89
2022/01/14 02:43:36;;;;;;;4.67;3.93;;;8.60;99.90;;;;;;4971192;28;20350;-88
2022/01/14 02:46:05;;;;;;;4.43;3.10;;;8.60;99.90;;;;;;4955246;28;20200;-88
2022/01/14 02:48:31;;;;;;;12.53;4.10;;;8.60;99.90;;;;;;4986938;28;20208;-88
2022/01/14 02:51:01;;;;;;;16.23;4.07;;;8.60;99.90;;;;;;4971256;28;20203;-88
2022/01/14 02:56:11;;;;;;;7.37;3.80;;;8.60;99.90;;;;;;4988746;28;20215;-88
2022/01/14 02:58:38;;;;;;;7.40;3.47;;;8.60;99.90;;;;;;4987723;28;20223;-89
2022/01/14 03:01:14;;;;;;;2.40;2.27;;;8.60;99.90;;;;;;4970468;28;20298;-88
2022/01/14 03:03:44;;;;;;;8.37;2.37;;;8.60;99.90;;;;;;4986654;28;20190;-88
2022/01/14 03:06:10;;;;;;;2.80;2.23;;;8.60;99.90;;;;;;5004110;28;20275;-89
2022/01/14 03:08:36;;;;;;;13.30;3.40;;;8.60;99.90;;;;;;4970928;28;20223;-88
2022/01/14 03:11:08;;;;;;;3.97;2.43;;;8.60;99.90;;;;;;4954590;28;20220;-89
2022/01/14 03:13:37;;;;;;;3.20;2.87;;;8.70;99.90;;;;;;5003005;28;20218;-88
2022/01/14 03:16:03;;;;;;;5.07;3.67;;;8.60;99.90;;;;;;4986803;28;20622;-88
2022/01/14 03:18:51;;;;;;;7.67;3.33;;;8.60;99.90;;;;;;4986771;28;20192;-88
2022/01/14 03:21:26;;;;;;;4.00;3.63;;;8.60;99.90;;;;;;4987365;28;20188;-87
2022/01/14 03:24:17;;;;;;;6.03;2.73;;;8.60;99.90;;;;;;4986408;28;20223;-88
2022/01/14 03:26:45;;;;;;;2.70;2.50;;;8.60;99.90;;;;;;5003040;28;20215;-88
2022/01/14 03:29:12;;;;;;;5.37;4.27;;;8.60;99.90;;;;;;5002575;28;20649;-88
2022/01/14 03:31:38;;;;;;;10.53;4.03;;;8.60;99.90;;;;;;4986435;28;20306;-88
2022/01/14 03:34:04;;;;;;;6.23;3.90;;;8.60;99.90;;;;;;4969484;28;20302;-88
2022/01/14 03:36:29;;;;;;;5.07;3.53;;;8.60;99.90;;;;;;4970049;28;20188;-88
2022/01/14 03:38:55;;;;;;;3.83;3.43;;;8.60;99.90;;;;;;4970883;28;20631;-88
2022/01/14 03:41:21;;;;;;;23.10;4.60;;;8.60;99.90;;;;;;4953892;28;20242;-88
2022/01/14 03:43:47;;;;;;;3.77;2.70;;;8.60;99.90;;;;;;4954596;28;20270;-88
2022/01/14 03:46:12;;;;;;;2.97;2.60;;;8.60;99.90;;;;;;4970847;28;20275;-88
2022/01/14 03:48:38;;;;;;;11.00;3.90;;;8.60;99.90;;;;;;4954336;28;20286;-88
2022/01/14 03:51:04;;;;;;;4.83;3.80;;;8.60;99.90;;;;;;4970343;28;20673;-89
2022/01/14 03:53:30;;;;;;;3.73;3.43;;;8.60;99.90;;;;;;4970412;28;20236;-88
2022/01/14 03:55:56;;;;;;;39.40;4.03;;;8.50;99.90;;;;;;4986191;28;20222;-88
2022/01/14 03:58:22;;;;;;;5.20;3.60;;;8.60;99.90;;;;;;4970474;28;20291;-88
2022/01/14 04:00:48;;;;;;;5.83;2.97;;;8.60;99.90;;;;;;4953929;28;20220;-88
2022/01/14 04:03:13;;;;;;;7.30;2.97;;;8.50;99.90;;;;;;4970603;28;20645;-88
2022/01/14 04:05:39;;;;;;;2.10;1.90;;;8.50;99.90;;;;;;4953695;28;20216;-88
2022/01/14 04:08:05;;;;;;;5.63;3.60;;;8.50;99.90;;;;;;4953869;28;20321;-88
2022/01/14 04:10:31;;;;;;;4.90;3.03;;;8.50;99.90;;;;;;4969955;28;20303;-88
2022/01/14 04:13:02;;;;;;;2.43;1.40;;;8.50;99.90;;;;;;4970614;28;20216;-88
2022/01/14 04:15:39;;;;;;;12.53;1.90;;;8.50;99.90;;;;;;4986702;28;20210;-88
2022/01/14 04:18:06;;;;;;;2.13;1.93;;;8.40;99.90;;;;;;4972313;28;20192;-88
2022/01/14 04:20:32;;;;;;;6.13;3.67;;;8.40;99.90;;;;;;4985904;28;20251;-88
2022/01/14 04:22:57;;;;;;;2.23;1.93;;;8.50;99.90;;;;;;4969936;28;20247;-88
2022/01/14 04:25:23;;;;;;;4.57;3.67;;;8.50;99.90;;;;;;4969987;28;20226;-88
2022/01/14 04:27:51;;;;;;;2.67;2.47;;;8.50;99.90;;;;;;4986224;28;20933;-88
2022/01/14 04:30:17;;;;;;;9.87;5.03;;;8.50;99.90;;;;;;4972030;28;20203;-88
2022/01/14 04:32:43;;;;;;;4.00;3.73;;;8.40;99.90;;;;;;4990664;28;20242;-88
2022/01/14 04:35:09;;;;;;;6.77;2.67;;;8.50;99.90;;;;;;4989288;28;20204;-88
2022/01/14 04:37:35;;;;;;;3.53;3.23;;;8.50;99.90;;;;;;4989317;28;20633;-88
2022/01/14 04:40:02;;;;;;;2.67;2.47;;;8.50;99.90;;;;;;4973958;28;20215;-88
2022/01/14 04:42:28;;;;;;;7.03;3.37;;;8.40;99.90;;;;;;4957709;28;20220;-88
2022/01/14 04:44:56;;;;;;;12.87;2.53;;;8.40;99.90;;;;;;4989777;28;20188;-88
2022/01/14 04:47:43;;;;;;;5.70;4.07;;;8.40;99.90;;;;;;4973262;28;20319;-88
2022/01/14 04:50:14;;;;;;;1.90;1.57;;;8.40;99.90;;;;;;4991924;28;20762;-88
2022/01/14 04:52:42;;;;;;;2.70;1.73;;;8.50;99.90;;;;;;4990036;28;20263;-88
2022/01/14 04:55:09;;;;;;;8.00;3.23;;;8.40;99.90;;;;;;4989794;28;20220;-88
2022/01/14 04:57:35;;;;;;;12.57;3.93;;;8.40;99.90;;;;;;4956984;28;20192;-88
2022/01/14 05:00:04;;;;;;;3.37;1.87;;;8.40;99.90;;;;;;4973186;28;20303;-88
2022/01/14 05:02:30;;;;;;;3.37;2.77;;;8.40;99.90;;;;;;5005525;28;20212;-89
2022/01/14 05:04:57;;;;;;;12.97;3.20;;;8.40;99.90;;;;;;4956930;28;20302;-88
2022/01/14 05:07:25;;;;;;;6.60;2.30;;;8.50;99.90;;;;;;4988756;28;20295;-88
2022/01/14 05:10:36;;;;;;;2.57;1.87;;;8.40;99.90;;;;;;4972746;28;20589;-88
2022/01/14 05:12:44;;;;;;;2.63;2.37;;;8.50;99.90;;;;;;4988448;28;20632;-88
2022/01/14 05:15:12;;;;;;;1.63;1.53;;;8.50;99.90;;;;;;4989370;28;20188;-88
2022/01/14 05:17:37;;;;;;;5.40;3.90;;;8.50;99.90;;;;;;4988665;28;21285;-88
2022/01/14 05:20:05;;;;;;;4.37;2.23;;;8.50;99.90;;;;;;4971879;28;20203;-88
2022/01/14 05:22:31;;;;;;;8.80;3.23;;;8.50;99.90;;;;;;4956506;28;20235;-88
2022/01/14 05:24:57;;;;;;;16.77;4.43;;;8.50;99.90;;;;;;4972446;28;20212;-88
2022/01/14 05:27:23;;;;;;;2.37;1.93;;;8.50;99.90;;;;;;4990348;28;20191;-88
2022/01/14 05:29:49;;;;;;;6.57;2.93;;;8.50;99.90;;;;;;4973053;28;20220;-89
2022/01/14 05:32:15;;;;;;;3.07;2.60;;;8.60;99.90;;;;;;4972022;28;20222;-88
2022/01/14 05:34:45;;;;;;;1.37;1.27;;;8.60;99.90;;;;;;4972754;28;20251;-89
2022/01/14 05:37:12;;;;;;;3.40;3.10;;;8.60;99.90;;;;;;4988033;28;20365;-88
2022/01/14 05:39:38;;;;;;;2.50;2.00;;;8.50;99.90;;;;;;4988626;28;20899;-88
2022/01/14 05:42:04;;;;;;;5.80;3.77;;;8.50;99.90;;;;;;4971356;28;20203;-88
2022/01/14 05:44:31;;;;;;;5.87;2.17;;;8.50;99.90;;;;;;4988955;28;20224;-88
2022/01/14 05:46:59;;;;;;;7.20;3.00;;;8.50;99.90;;;;;;4971806;28;20243;-88
2022/01/14 05:49:25;;;;;;;4.23;2.07;;;8.50;99.90;;;;;;4987829;28;20216;-88
2022/01/14 05:51:51;;;;;;;5.20;1.70;;;8.50;99.90;;;;;;4987291;28;20232;-88
2022/01/14 05:54:18;;;;;;;2.53;2.33;;;8.50;99.90;;;;;;4954644;28;20210;-88
2022/01/14 05:56:44;;;;;;;3.83;3.50;;;8.40;99.90;;;;;;4970218;28;20811;-88
2022/01/14 05:59:11;;;;;;;2.67;2.37;;;8.50;99.90;;;;;;4971766;28;20227;-88
2022/01/14 06:01:37;;;;;;;2.07;1.83;;;8.40;99.90;;;;;;4987909;28;20294;-87
2022/01/14 06:04:04;;;;;;;1.77;1.67;;;8.40;99.90;;;;;;4955555;28;20230;-88
2022/01/14 06:06:31;;;;;;;8.80;2.43;;;8.50;99.90;;;;;;4988064;28;20184;-88
2022/01/14 06:08:58;;;;;;;6.27;2.70;;;8.40;99.90;;;;;;4987766;28;20575;-88
2022/01/14 06:11:24;;;;;;;6.23;2.57;;;8.40;99.90;;;;;;4987343;28;20218;-88
2022/01/14 06:13:50;;;;;;;3.37;3.10;;;8.40;99.90;;;;;;4986561;28;20219;-88
2022/01/14 06:16:16;;;;;;;2.73;1.37;;;8.40;99.90;;;;;;4971128;28;20640;-88
2022/01/14 06:18:42;;;;;;;1.67;1.57;;;8.50;99.90;;;;;;4955239;28;20247;-88
2022/01/14 06:21:08;;;;;;;2.57;2.20;;;8.40;99.90;;;;;;4971584;28;20223;-88
2022/01/14 06:23:34;;;;;;;7.10;2.20;;;8.50;99.90;;;;;;4987124;28;20224;-88
2022/01/14 06:26:01;;;;;;;3.47;2.57;;;8.40;99.90;;;;;;5003205;28;20215;-88
2022/01/14 06:28:27;;;;;;;3.40;3.17;;;8.40;99.90;;;;;;4987324;28;20232;-88
2022/01/14 06:30:52;;;;;;;2.23;2.07;;;8.40;99.90;;;;;;4970925;28;21102;-87
2022/01/14 06:33:18;;;;;;;1.93;1.77;;;8.40;99.90;;;;;;4954864;28;20597;-87
2022/01/14 06:35:44;;;;;;;2.40;2.10;;;8.40;99.90;;;;;;4970973;28;20211;-88
2022/01/14 06:38:10;;;;;;;2.87;2.07;;;8.40;99.90;;;;;;4954469;28;20222;-87
2022/01/14 06:40:37;;;;;;;3.03;2.77;;;8.40;99.90;;;;;;4954945;28;20271;-88
2022/01/14 06:43:04;;;;;;;1.90;1.63;;;8.40;99.90;;;;;;5003578;28;20251;-87
2022/01/14 06:45:31;;;;;;;2.33;1.37;;;8.50;99.90;;;;;;4986844;28;20291;-88
2022/01/14 06:47:57;;;;;;;1.27;1.20;;;8.40;99.90;;;;;;4988083;28;20726;-88
2022/01/14 06:50:23;;;;;;;1.80;1.70;;;8.40;99.90;;;;;;4986731;28;20258;-88
2022/01/14 06:52:50;;;;;;;1.37;1.10;;;8.40;99.90;;;;;;4970707;28;20239;-88
2022/01/14 06:55:15;;;;;;;1.93;1.23;;;8.40;99.90;;;;;;4986502;28;20208;-88
2022/01/14 06:57:41;;;;;;;3.60;1.87;;;8.40;99.90;;;;;;4971089;28;20222;-87
2022/01/14 07:00:13;;;;;;;14.47;2.50;;;8.40;99.90;;;;;;4955331;28;20187;-88
2022/01/14 07:02:39;;;;;;;1.13;1.03;;;8.50;99.90;;;;;;4986653;28;20243;-88
2022/01/14 07:05:08;;;;;;;1.67;1.23;;;8.50;99.90;;;;;;4987328;28;20821;-88
2022/01/14 07:07:34;;;;;;;3.17;2.23;;;8.50;99.90;;;;;;4986644;28;20684;-88
2022/01/14 07:10:00;;;;;;;0.87;0.87;;;8.50;99.90;;;;;;4987161;28;20588;-88
2022/01/14 07:12:36;;;;;;;1.50;1.40;;;8.50;99.90;;;;;;4970955;28;21068;-87
2022/01/14 07:15:05;;;;;;;1.67;1.57;;;8.50;99.90;;;;;;4987504;28;20194;-88
2022/01/14 07:17:31;;;;;;;6.23;1.90;;;8.40;99.90;;;;;;4986231;28;20215;-88
2022/01/14 07:20:00;;;;;;;22.37;2.27;;;8.50;99.90;;;;;;4970134;28;20261;-88
2022/01/14 07:22:27;;;;;;;4.60;2.37;;;8.50;99.90;;;;;;4971795;28;20224;-91
2022/01/14 07:24:53;;;;;;;1.43;1.17;;;8.50;99.90;;;;;;4954380;28;20215;-88
2022/01/14 07:27:19;;;;;;;10.47;1.50;;;8.50;99.90;;;;;;4970551;28;20188;-88
2022/01/14 07:29:45;;;;;;;5.40;3.90;;;8.50;99.90;;;;;;4970306;28;20223;-89
2022/01/14 07:32:11;;;;;;;5.73;1.57;;;8.50;99.90;;;;;;4954582;28;20572;-88
2022/01/14 07:34:36;;;;;;;1.23;0.80;;;8.50;99.90;;;;;;4986649;28;20263;-88
2022/01/14 07:37:02;;;;;;;0.80;0.80;;;8.50;99.90;;;;;;4953966;28;20265;-88
2022/01/14 07:39:28;;;;;;;0.83;0.83;;;8.60;99.90;;;;;;4986026;28;20196;-88
2022/01/14 07:41:54;;;;;;;1.27;1.17;;;8.60;99.90;;;;;;4986637;28;20203;-88
2022/01/14 07:44:21;;;;;;;1.37;0.93;;;8.60;99.90;;;;;;4969816;28;20207;-88
2022/01/14 07:46:50;;;;;;;0.87;0.77;;;8.60;99.90;;;;;;4986134;28;20719;-87
2022/01/14 07:49:16;;;;;;;1.10;0.77;;;8.60;99.90;;;;;;4954988;28;20211;-88
2022/01/14 07:51:42;;;;;;;9.67;2.97;;;8.60;99.90;;;;;;4985886;28;20188;-87
2022/01/14 07:54:08;;;;;;;1.70;1.57;;;8.60;99.90;;;;;;4986950;28;20206;-88
2022/01/14 07:56:36;;;;;;;1.77;1.67;;;8.60;99.90;;;;;;4986396;28;20585;-87
2022/01/14 07:59:03;;;;;;;3.33;1.70;;;8.60;99.90;;;;;;4986380;28;20219;-88
2022/01/14 08:01:29;;;;;;;2.10;1.27;;;8.60;99.90;;;;;;4970133;28;20222;-88
2022/01/14 08:03:55;;;;;;;4.00;1.47;;;8.60;99.90;;;;;;4987708;28;20215;-88
2022/01/14 08:06:24;;;;;;;1.80;1.70;;;8.60;99.90;;;;;;4973714;28;20238;-88
2022/01/14 08:08:50;;;;;;;0.97;0.97;;;8.60;99.90;;;;;;4975240;28;20597;-88
2022/01/14 08:11:15;;;;;;;1.03;0.63;;;8.60;99.90;;;;;;4957220;28;20212;-88
2022/01/14 08:13:41;;;;;;;3.20;1.53;;;8.60;99.90;;;;;;4957289;28;20219;-87
2022/01/14 08:16:07;;;;;;;10.77;1.70;;;8.70;99.90;;;;;;4972405;28;20812;-88
2022/01/14 08:18:33;;;;;;;0.67;0.60;;;8.60;99.90;;;;;;4973546;28;20199;-88
2022/01/14 08:20:59;;;;;;;8.30;1.20;;;8.70;99.90;;;;;;4973147;28;20192;-87
2022/01/14 08:23:25;;;;;;;0.37;0.37;;;8.60;99.90;;;;;;4972771;28;20220;-87
2022/01/14 08:25:53;;;;;;;0.83;0.83;;;8.60;99.90;;;;;;5005812;28;20220;-88
2022/01/14 08:28:22;;;;;;;2.90;1.53;;;8.70;99.90;;;;;;4989509;28;20748;-87
2022/01/14 08:30:48;;;;;;;0.43;0.43;;;8.70;99.90;;;;;;4973238;28;20220;-87
2022/01/14 08:33:13;;;;;;;0.47;0.43;;;8.70;99.90;;;;;;4989589;28;20531;-87
2022/01/14 08:35:40;;;;;;;2.23;0.73;;;8.70;99.90;;;;;;4970318;28;20282;-88
2022/01/14 08:38:06;;;;;;;2.20;1.03;;;8.70;99.90;;;;;;4989286;28;20223;-87
2022/01/14 08:40:33;;;;;;;1.47;0.80;;;8.70;99.90;;;;;;4988764;28;20239;-88
2022/01/14 08:42:59;;;;;;;0.40;0.40;;;8.80;99.90;;;;;;4973119;28;20255;-87
2022/01/14 08:45:25;;;;;;;6.50;1.17;;;8.80;99.90;;;;;;4989872;28;20683;-86
2022/01/14 08:47:53;;;;;;;3.63;1.53;;;8.80;99.90;;;;;;4972474;28;20239;-86
2022/01/14 08:50:24;;;;;;;2.43;0.77;;;8.80;99.90;;;;;;4988641;28;20223;-87
2022/01/14 08:52:50;;;;;;;3.67;2.17;;;8.80;99.90;;;;;;4972236;28;20723;-87
2022/01/14 08:55:17;;;;;;;0.93;0.93;;;8.80;99.90;;;;;;4956751;28;20212;-88
2022/01/14 08:57:46;;;;;;;0.30;0.30;;;8.90;99.90;;;;;;4973193;28;20187;-87
2022/01/14 09:00:13;;;;;;;1.73;0.63;;;8.90;99.90;;;;;;4972886;28;20607;-87
2022/01/14 09:02:39;;;;;;;1.90;0.90;;;8.90;99.90;;;;;;4956600;28;20298;-87
2022/01/14 09:05:06;;;;;;;1.90;0.70;;;9.00;99.90;;;;;;4988977;28;20633;-86
2022/01/14 09:07:32;;;;;;;8.60;1.53;;;9.00;99.90;;;;;;4987972;28;20220;-86
2022/01/14 09:09:57;;;;;;;6.60;1.37;;;9.00;99.90;;;;;;4955730;28;20696;-87
2022/01/14 09:12:23;;;;;;;4.50;0.57;;;9.10;99.90;;;;;;4956723;28;20207;-86
2022/01/14 09:14:49;;;;;;;1.63;0.67;;;9.10;99.90;;;;;;4972451;28;20298;-87
2022/01/14 09:17:17;;;;;;;0.70;0.70;;;9.10;99.90;;;;;;4971430;28;20295;-87
2022/01/14 09:19:44;;;;;;;0.87;0.87;;;9.20;99.90;;;;;;4972044;28;20227;-87
2022/01/14 09:22:10;;;;;;;2.97;1.43;;;9.30;99.90;;;;;;5003882;28;20217;-87
2022/01/14 09:24:36;;;;;;;12.07;1.20;;;9.30;99.90;;;;;;4972337;28;20622;-88
2022/01/14 09:27:03;;;;;;;2.33;1.07;;;9.30;99.90;;;;;;4988605;28;20283;-87
2022/01/14 09:29:29;;;;;;;1.33;0.67;;;9.30;99.90;;;;;;4972156;28;20223;-87
2022/01/14 09:31:55;;;;;;;1.53;1.43;;;9.30;99.90;;;;;;4971746;28;20215;-86
2022/01/14 09:34:20;;;;;;;1.20;1.10;;;9.20;99.90;;;;;;4971227;28;20294;-86
2022/01/14 09:36:46;;;;;;;0.60;0.60;;;9.30;99.90;;;;;;4955880;28;20216;-87
2022/01/14 09:39:12;;;;;;;0.63;0.63;;;9.30;99.90;;;;;;4987794;28;20683;-87
2022/01/14 09:41:38;;;;;;;1.60;1.10;;;9.30;99.90;;;;;;4955020;28;20293;-87
2022/01/14 09:44:05;;;;;;;1.90;1.70;;;9.20;99.90;;;;;;4987985;28;20208;-86
2022/01/14 09:46:31;;;;;;;1.50;1.33;;;9.20;99.90;;;;;;4988611;28;20208;-87
2022/01/14 09:48:57;;;;;;;2.43;1.47;;;9.30;99.90;;;;;;5003369;28;20230;-88
2022/01/14 09:51:23;;;;;;;1.00;0.93;;;9.30;99.90;;;;;;4971756;28;20192;-86
2022/01/14 09:53:49;;;;;;;7.60;1.90;;;9.30;99.90;;;;;;4987258;28;21017;-88
2022/01/14 09:56:17;;;;;;;3.30;0.97;;;9.30;99.90;;;;;;4987926;28;20220;-87
2022/01/14 09:58:47;;;;;;;6.90;1.60;;;9.40;99.90;;;;;;4987894;28;20226;-87
2022/01/14 10:01:17;;;;;;;2.63;1.30;;;9.40;99.90;;;;;;4988020;28;20309;-88
2022/01/14 10:03:59;;;;;;;2.10;1.60;;;9.40;99.90;;;;;;5003537;28;20184;-87
2022/01/14 10:06:51;;;;;;;0.73;0.73;;;9.40;99.90;;;;;;4988091;28;20191;-88
2022/01/14 10:09:24;;;;;;;3.57;1.10;;;9.40;99.90;;;;;;5003995;28;20799;-87
2022/01/14 10:12:16;;;;;;;0.50;0.50;;;9.40;99.90;;;;;;4984579;28;20283;-87
2022/01/14 10:15:06;;;;;;;1.37;1.13;;;9.50;99.90;;;;;;4985916;28;20974;-88
2022/01/14 10:17:43;;;;;;;0.90;0.83;;;9.50;99.90;;;;;;4987171;28;20243;-87
2022/01/14 10:20:11;;;;;;;5.70;0.97;;;9.60;99.90;;;;;;4971023;28;20216;-88
2022/01/14 10:22:42;;;;;;;0.80;0.73;;;9.60;99.90;;;;;;4987132;28;20323;-87
2022/01/14 10:25:11;;;;;;;2.60;1.70;;;9.60;99.90;;;;;;5003806;28;20212;-89
2022/01/14 10:27:50;;;;;;;1.60;1.50;;;9.60;99.90;;;;;;5002226;28;20215;-88
2022/01/14 10:30:17;;;;;;;13.20;1.97;;;9.60;99.90;;;;;;5004004;28;20180;-88
2022/01/14 10:32:55;;;;;;;4.43;1.47;;;9.60;99.90;;;;;;5003189;28;20650;-89
2022/01/14 10:35:23;;;;;;;1.20;1.13;;;9.60;99.90;;;;;;5002402;28;20215;-87
2022/01/14 10:37:49;;;;;;;0.73;0.40;;;9.60;99.90;;;;;;5003291;28;20212;-87
2022/01/14 10:40:21;;;;;;;1.07;0.97;;;9.60;99.90;;;;;;4988204;28;20263;-88
2022/01/14 10:42:58;;;;;;;1.43;0.93;;;9.60;99.90;;;;;;4987095;28;20262;-87
2022/01/14 10:45:27;;;;;;;3.10;1.67;;;9.60;99.90;;;;;;4986232;28;20187;-87
2022/01/14 10:48:13;;;;;;;0.70;0.57;;;9.60;99.90;;;;;;4987468;28;20212;-88
2022/01/14 10:50:59;;;;;;;3.13;1.10;;;9.60;99.90;;;;;;4986666;28;20219;-87
2022/01/14 10:53:29;;;;;;;0.80;0.80;;;9.60;99.90;;;;;;4953960;28;20224;-88
2022/01/14 10:56:14;;;;;;;5.10;1.10;;;9.60;99.90;;;;;;5003205;28;20561;-87
2022/01/14 10:58:43;;;;;;;0.77;0.60;;;9.60;99.90;;;;;;4985698;28;20239;-88
2022/01/14 11:01:12;;;;;;;4.63;1.00;;;9.60;99.90;;;;;;5002604;28;20554;-87
2022/01/14 11:03:47;;;;;;;2.80;1.53;;;9.60;99.90;;;;;;4971172;28;20555;-87
2022/01/14 11:06:16;;;;;;;1.03;0.97;;;9.60;99.90;;;;;;5003272;28;20187;-87
2022/01/14 11:08:43;;;;;;;2.03;1.37;;;9.60;99.90;;;;;;5002566;28;20577;-88
2022/01/14 11:11:09;;;;;;;2.97;1.00;;;9.70;99.90;;;;;;4969910;28;20223;-88
2022/01/14 11:13:35;;;;;;;3.57;1.00;;;9.60;99.90;;;;;;4954208;28;20223;-88
2022/01/14 11:16:01;;;;;;;5.30;1.83;;;9.70;99.90;;;;;;4953770;28;20227;-88
2022/01/14 11:18:28;;;;;;;0.70;0.70;;;9.70;99.90;;;;;;4954744;28;20192;-88
2022/01/14 11:23:37;;;;;;;0.93;0.90;;;9.70;99.90;;;;;;4981638;28;20766;-89
2022/01/14 11:26:07;;;;;;;1.27;1.10;;;9.70;99.90;;;;;;4970334;28;20220;-88
2022/01/14 11:28:39;;;;;;;2.57;1.50;;;9.80;99.90;;;;;;4985997;28;20224;-87
2022/01/14 11:31:30;;;;;;;1.03;0.83;;;9.80;99.90;;;;;;4986225;28;20246;-88
2022/01/14 11:34:00;;;;;;;3.20;1.90;;;9.80;99.90;;;;;;4989314;28;20220;-88
2022/01/14 11:36:59;;;;;;;1.47;1.37;;;9.90;99.90;;;;;;4985559;28;20199;-87
2022/01/14 11:39:30;;;;;;;1.13;1.03;;;9.90;99.90;;;;;;4988842;28;20213;-89
2022/01/14 11:42:03;;;;;;;5.40;1.07;;;9.90;99.90;;;;;;4974753;28;20656;-88
2022/01/14 11:44:46;;;;;;;0.87;0.77;;;10.00;99.90;;;;;;4974546;28;20696;-87
2022/01/14 11:47:24;;;;;;;2.67;1.00;;;9.90;99.90;;;;;;5006538;28;20224;-88
2022/01/14 11:49:54;;;;;;;4.57;2.20;;;9.90;99.90;;;;;;4990122;28;20715;-88
2022/01/14 11:52:40;;;;;;;3.70;1.27;;;10.00;99.90;;;;;;4974030;28;20223;-89
2022/01/14 11:55:21;;;;;;;9.23;1.17;;;10.00;99.90;;;;;;5005276;28;20223;-87
2022/01/14 11:57:54;;;;;;;2.87;1.97;;;10.00;99.90;;;;;;4990309;28;20370;-89
2022/01/14 12:00:26;;;;;;;18.90;1.50;;;10.00;99.90;;;;;;4991585;28;20196;-88
2022/01/14 12:03:00;;;;;;;3.50;2.57;;;9.90;99.90;;;;;;4990444;28;20255;-90
2022/01/14 12:05:27;;;;;;;1.20;0.90;;;9.90;99.90;;;;;;4989753;28;20224;-88
2022/01/14 12:08:05;;;;;;;1.60;1.20;;;10.00;99.90;;;;;;4990157;28;20985;-88
2022/01/14 12:10:36;;;;;;;2.93;2.30;;;10.00;99.90;;;;;;5003402;28;20215;-88
2022/01/14 12:13:22;;;;;;;1.93;1.53;;;9.90;99.90;;;;;;4990239;28;20227;-88
2022/01/14 12:15:57;;;;;;;1.23;1.20;;;10.00;99.90;;;;;;5005566;28;20208;-88
2022/01/14 12:18:57;;;;;;;1.80;1.47;;;10.00;99.90;;;;;;4990070;28;20726;-88
2022/01/14 12:21:44;;;;;;;1.37;1.23;;;10.10;99.90;;;;;;4990202;28;20302;-88
2022/01/14 12:24:19;;;;;;;2.60;1.33;;;10.10;99.90;;;;;;4990093;28;20203;-90
2022/01/14 12:29:40;;;;;;;1.30;0.73;;;10.10;99.90;;;;;;4990886;28;20224;-87
2022/01/14 12:32:07;;;;;;;1.73;1.37;;;10.20;99.90;;;;;;4989101;28;20207;-89
2022/01/14 12:34:36;;;;;;;5.10;0.93;;;10.20;99.90;;;;;;4973201;28;20274;-88
2022/01/14 12:37:03;;;;;;;4.00;1.67;;;10.20;99.90;;;;;;4990153;28;20212;-88
2022/01/14 12:39:29;;;;;;;6.83;3.33;;;10.20;99.90;;;;;;4957391;28;20207;-88
2022/01/14 12:41:57;;;;;;;2.97;0.93;;;10.20;99.90;;;;;;5006052;28;20206;-88
2022/01/14 12:44:24;;;;;;;2.03;1.23;;;10.20;99.90;;;;;;4989103;28;21424;-87
2022/01/14 12:47:01;;;;;;;1.60;0.97;;;10.20;99.90;;;;;;4972468;28;20234;-87
2022/01/14 12:49:32;;;;;;;2.23;1.27;;;10.20;99.90;;;;;;4989203;28;20235;-88
2022/01/14 12:52:02;;;;;;;2.80;0.93;;;10.20;99.90;;;;;;4988257;28;20220;-87
2022/01/14 12:54:32;;;;;;;2.27;1.40;;;10.10;99.90;;;;;;4989168;28;20287;-88
2022/01/14 12:56:58;;;;;;;3.63;1.47;;;10.10;99.90;;;;;;4973313;28;20291;-87
2022/01/14 12:59:25;;;;;;;2.50;1.93;;;10.10;99.90;;;;;;4988388;28;20757;-88
2022/01/14 13:01:52;;;;;;;8.23;1.50;;;10.20;99.90;;;;;;4972007;28;20791;-87
2022/01/14 13:04:20;;;;;;;10.87;1.13;;;10.20;99.90;;;;;;5005133;28;20574;-88
2022/01/14 13:06:54;;;;;;;14.60;2.20;;;10.20;99.90;;;;;;4988085;28;20220;-88
2022/01/14 13:09:23;;;;;;;10.13;2.30;;;10.10;99.90;;;;;;4989063;28;20661;-88
2022/01/14 13:12:03;;;;;;;3.57;1.23;;;10.10;99.90;;;;;;4987989;28;20270;-87
2022/01/14 13:14:38;;;;;;;1.93;1.83;;;10.10;99.90;;;;;;4988718;28;20219;-87
2022/01/14 13:17:13;;;;;;;0.90;0.80;;;10.10;99.90;;;;;;4988032;28;20242;-88
2022/01/14 13:19:39;;;;;;;10.30;3.73;;;10.10;99.90;;;;;;4988495;28;20215;-88
2022/01/14 13:22:09;;;;;;;1.93;1.43;;;10.10;99.90;;;;;;4972189;28;20216;-88
2022/01/14 13:24:38;;;;;;;2.10;1.17;;;10.10;99.90;;;;;;4988089;28;20212;-88
2022/01/14 13:27:06;;;;;;;5.20;1.40;;;10.10;99.90;;;;;;4989643;28;20188;-88
2022/01/14 13:29:48;;;;;;;3.40;3.00;;;10.00;99.90;;;;;;4988296;28;20232;-89
2022/01/14 13:32:18;;;;;;;1.27;0.87;;;10.00;99.90;;;;;;4988370;28;20323;-88